Time;durP1;ratioP1;P1;durP2;ratioP2;P2;SDS_P1;SDS_P2;PMS_P1;PMS_P2;Temp;Humidity;BMP_temperature;BMP_pressure;BME280_temperature;BME280_humidity;BME280_pressure;Samples;Min_cycle;Max_cycle;Signal;HPM_P1;HPM_P2
2022/06/29 00:01:19;;;;;;;;;18.33;17.67;;;;;;;;6493713;46;8948;-61
2022/06/29 00:07:23;;;;;;;;;22.00;20.33;;;;;;;;6492478;39;8904;-61
2022/06/29 00:13:26;;;;;;;;;21.00;20.67;;;;;;;;6493834;31;8877;-61
2022/06/29 00:19:30;;;;;;;;;21.67;21.67;;;;;;;;6493164;31;8849;-59
2022/06/29 00:25:33;;;;;;;;;23.33;22.67;;;;;;;;6492395;46;8873;-60
2022/06/29 00:31:35;;;;;;;;;22.67;21.33;;;;;;;;6492429;46;8959;-60
2022/06/29 00:37:41;;;;;;;;;25.00;24.00;;;;;;;;6491948;46;8923;-60
2022/06/29 00:43:45;;;;;;;;;25.00;23.00;;;;;;;;6493201;46;8865;-59
2022/06/29 00:49:49;;;;;;;;;24.00;23.33;;;;;;;;6492141;46;8908;-62
2022/06/29 00:56:01;;;;;;;;;23.33;23.33;;;;;;;;6492603;39;9391;-61
2022/06/29 01:02:03;;;;;;;;;23.33;19.67;;;;;;;;6493206;39;8940;-61
2022/06/29 01:08:06;;;;;;;;;24.33;23.67;;;;;;;;6492327;46;8920;-60
2022/06/29 01:14:14;;;;;;;;;26.67;23.33;;;;;;;;6493702;39;8852;-60
2022/06/29 01:20:16;;;;;;;;;24.33;23.33;;;;;;;;6492143;39;8837;-61
2022/06/29 01:26:21;;;;;;;;;21.33;21.00;;;;;;;;6492203;39;8817;-60
2022/06/29 01:32:23;;;;;;;;;25.00;24.00;;;;;;;;6491999;46;8885;-60
2022/06/29 01:38:25;;;;;;;;;26.67;23.67;;;;;;;;6492147;39;9472;-60
2022/06/29 01:44:29;;;;;;;;;26.67;23.67;;;;;;;;6492778;39;9571;-59
2022/06/29 01:50:38;;;;;;;;;28.00;27.67;;;;;;;;6491612;31;8881;-60
2022/06/29 01:56:40;;;;;;;;;29.33;29.33;;;;;;;;6492507;39;8868;-60
2022/06/29 02:02:43;;;;;;;;;26.33;24.67;;;;;;;;6492508;31;8925;-61
2022/06/29 02:08:48;;;;;;;;;26.33;26.33;;;;;;;;6491391;47;8909;-59
2022/06/29 02:14:51;;;;;;;;;26.33;23.33;;;;;;;;6492260;39;8868;-60
2022/06/29 02:21:03;;;;;;;;;24.33;24.33;;;;;;;;6493389;39;9877;-61
2022/06/29 02:27:08;;;;;;;;;26.67;26.33;;;;;;;;6494616;39;9491;-60
2022/06/29 02:39:33;;;;;;;;;26.00;26.00;;;;;;;;6494238;39;8957;-61
2022/06/29 02:45:36;;;;;;;;;31.00;26.67;;;;;;;;6493987;39;8869;-61
2022/06/29 02:51:40;;;;;;;;;28.67;27.33;;;;;;;;6493736;39;8897;-61
2022/06/29 02:57:48;;;;;;;;;29.00;27.00;;;;;;;;6493394;39;8928;-61
2022/06/29 03:03:50;;;;;;;;;27.33;27.00;;;;;;;;6493171;39;8908;-60
2022/06/29 03:09:54;;;;;;;;;27.33;25.00;;;;;;;;6494037;39;8837;-60
2022/06/29 03:15:58;;;;;;;;;23.33;23.33;;;;;;;;6493599;39;8880;-61
2022/06/29 03:22:02;;;;;;;;;30.33;28.00;;;;;;;;6492978;46;8869;-61
2022/06/29 03:28:06;;;;;;;;;29.67;26.00;;;;;;;;6493580;39;8999;-60
2022/06/29 03:34:08;;;;;;;;;30.00;28.33;;;;;;;;6493168;39;9595;-61
2022/06/29 03:40:11;;;;;;;;;30.00;26.33;;;;;;;;6492939;39;8820;-60
2022/06/29 03:46:13;;;;;;;;;30.33;27.67;;;;;;;;6492798;46;8972;-59
2022/06/29 03:52:15;;;;;;;;;27.50;27.50;;;;;;;;6492395;31;9043;-60
2022/06/29 03:58:17;;;;;;;;;28.00;28.00;;;;;;;;6494065;39;8909;-60
2022/06/29 04:04:19;;;;;;;;;31.67;27.67;;;;;;;;6466512;31;9053;-58
2022/06/29 04:10:22;;;;;;;;;24.33;23.00;;;;;;;;6492257;46;8920;-61
